Time;durP1;ratioP1;P1;durP2;ratioP2;P2;SDS_P1;SDS_P2;PMS_P1;PMS_P2;Temp;Humidity;BMP_temperature;BMP_pressure;BME280_temperature;BME280_humidity;BME280_pressure;Samples;Min_cycle;Max_cycle;Signal;HPM_P1;HPM_P2
2021/12/26 00:01:36;;;;;;;16.15;4.65;;;25.40;99.90;;;;;;4973381;28;20022;-77
2021/12/26 00:04:05;;;;;;;14.15;4.13;;;25.50;99.90;;;;;;4972562;28;20034;-77
2021/12/26 00:06:33;;;;;;;14.55;4.65;;;25.70;99.90;;;;;;4971415;28;20090;-75
2021/12/26 00:09:03;;;;;;;13.07;4.03;;;25.90;99.90;;;;;;4963512;28;20564;-74
2021/12/26 00:11:30;;;;;;;11.20;3.90;;;26.00;99.90;;;;;;4973531;28;20038;-75
2021/12/26 00:13:58;;;;;;;11.45;3.08;;;26.20;99.90;;;;;;4964831;28;20031;-76
2021/12/26 00:16:25;;;;;;;12.23;4.03;;;26.30;99.90;;;;;;4974794;28;20126;-74
2021/12/26 00:18:53;;;;;;;12.23;3.75;;;26.30;99.90;;;;;;4966359;28;20034;-75
2021/12/26 00:21:22;;;;;;;14.23;4.00;;;26.40;99.90;;;;;;4957393;28;20028;-69
2021/12/26 00:23:50;;;;;;;13.35;3.63;;;26.40;99.90;;;;;;4953158;28;20047;-71
2021/12/26 00:26:18;;;;;;;10.88;3.67;;;26.60;99.90;;;;;;4957115;28;20027;-69
2021/12/26 00:28:45;;;;;;;13.82;3.78;;;26.80;99.90;;;;;;4958025;28;20028;-70
2021/12/26 00:31:16;;;;;;;9.55;4.15;;;27.10;99.90;;;;;;4954914;28;20081;-71
2021/12/26 00:33:45;;;;;;;10.55;3.50;;;27.10;99.90;;;;;;4957681;28;20038;-71
2021/12/26 00:36:12;;;;;;;18.85;5.65;;;27.20;99.90;;;;;;4955387;28;20475;-71
2021/12/26 00:38:40;;;;;;;11.05;3.50;;;27.10;99.90;;;;;;4955205;28;20124;-70
2021/12/26 00:41:07;;;;;;;12.35;3.75;;;27.10;99.90;;;;;;4970401;28;20087;-70
2021/12/26 00:43:35;;;;;;;12.45;3.60;;;27.20;99.90;;;;;;4970983;28;20042;-70
2021/12/26 00:46:02;;;;;;;16.35;3.83;;;27.30;99.90;;;;;;4971744;28;20038;-70
2021/12/26 00:48:30;;;;;;;13.23;3.55;;;27.40;99.90;;;;;;4965812;28;20022;-71
2021/12/26 00:50:58;;;;;;;12.07;3.55;;;27.40;99.90;;;;;;4961906;28;20049;-70
2021/12/26 00:53:25;;;;;;;12.23;3.70;;;27.30;99.90;;;;;;4967950;28;20026;-70
2021/12/26 00:55:53;;;;;;;10.15;3.83;;;27.30;99.90;;;;;;4970555;28;20026;-70
2021/12/26 00:58:20;;;;;;;13.15;3.40;;;27.40;99.90;;;;;;4970082;28;20376;-70
2021/12/26 01:00:50;;;;;;;13.27;3.95;;;27.40;99.90;;;;;;4964193;28;20082;-70
2021/12/26 01:03:18;;;;;;;14.07;3.40;;;27.20;99.90;;;;;;4952530;28;20027;-69
2021/12/26 01:05:49;;;;;;;9.82;3.28;;;27.20;99.90;;;;;;4969956;28;20023;-70
2021/12/26 01:08:18;;;;;;;10.38;3.50;;;27.40;99.90;;;;;;4969484;28;20029;-69
2021/12/26 01:10:53;;;;;;;11.07;3.42;;;27.70;99.90;;;;;;4954782;28;20469;-71
2021/12/26 01:13:30;;;;;;;12.35;2.85;;;27.90;99.90;;;;;;4952577;28;20062;-68
2021/12/26 01:16:01;;;;;;;12.18;3.28;;;27.90;99.90;;;;;;4963836;28;20039;-67
2021/12/26 01:18:32;;;;;;;6.30;2.87;;;28.10;99.90;;;;;;4958153;28;20027;-69
2021/12/26 01:21:06;;;;;;;11.57;2.78;;;28.40;99.90;;;;;;4963376;28;20279;-69
2021/12/26 01:23:33;;;;;;;12.15;3.67;;;28.60;99.50;;;;;;4965285;28;20043;-72
2021/12/26 01:26:01;;;;;;;9.85;2.58;;;28.60;99.40;;;;;;4970739;28;20031;-71
2021/12/26 01:28:29;;;;;;;6.28;2.30;;;28.80;99.00;;;;;;4970765;28;20019;-71
2021/12/26 01:30:59;;;;;;;9.50;2.85;;;28.80;98.70;;;;;;4970852;28;20420;-70
2021/12/26 01:33:28;;;;;;;10.23;2.63;;;28.70;98.70;;;;;;4972353;28;20027;-71
2021/12/26 01:35:56;;;;;;;7.60;2.47;;;28.80;98.40;;;;;;4971918;28;20042;-70
2021/12/26 01:38:24;;;;;;;62.92;56.40;;;29.10;98.00;;;;;;4972014;28;20476;-71
2021/12/26 01:40:55;;;;;;;8.93;3.17;;;29.30;98.00;;;;;;4972183;28;20050;-71
2021/12/26 01:43:25;;;;;;;12.05;3.97;;;29.50;97.10;;;;;;4971940;28;20467;-70
2021/12/26 01:45:54;;;;;;;5.32;2.75;;;29.50;97.50;;;;;;4972140;28;20035;-71
2021/12/26 01:48:23;;;;;;;10.40;3.10;;;29.80;96.50;;;;;;4972490;28;20027;-71
2021/12/26 01:50:52;;;;;;;9.35;3.13;;;29.90;96.20;;;;;;4972355;28;20031;-72
2021/12/26 01:53:22;;;;;;;10.73;2.33;;;29.70;96.00;;;;;;4972407;28;20034;-69
2021/12/26 01:55:50;;;;;;;10.55;2.70;;;29.50;95.70;;;;;;4972368;28;20487;-71
2021/12/26 01:58:21;;;;;;;9.38;2.33;;;29.60;96.00;;;;;;4972269;28;20644;-71
2021/12/26 02:00:54;;;;;;;12.27;3.75;;;29.40;96.10;;;;;;4972793;28;20065;-71
2021/12/26 02:03:22;;;;;;;10.55;3.10;;;29.20;96.60;;;;;;4972202;28;20030;-72
2021/12/26 02:05:49;;;;;;;9.18;2.42;;;29.10;96.90;;;;;;4971817;28;20472;-71
2021/12/26 02:08:17;;;;;;;8.35;2.65;;;28.90;96.80;;;;;;4972427;28;20038;-72
2021/12/26 02:10:44;;;;;;;7.65;3.10;;;28.70;97.40;;;;;;4972640;28;20435;-72
2021/12/26 02:13:11;;;;;;;11.30;2.97;;;28.60;97.40;;;;;;4972426;28;20368;-70
2021/12/26 02:15:39;;;;;;;9.57;2.80;;;28.40;97.50;;;;;;4972434;28;20047;-69
2021/12/26 02:18:08;;;;;;;10.98;3.10;;;28.20;97.90;;;;;;4971766;28;20026;-71
2021/12/26 02:23:17;;;;;;;10.15;2.80;;;28.10;98.40;;;;;;4972230;28;20049;-69
2021/12/26 02:28:27;;;;;;;11.23;3.67;;;28.00;99.00;;;;;;4972044;28;20025;-69
2021/12/26 02:30:56;;;;;;;9.63;3.78;;;28.10;98.50;;;;;;4972132;28;20106;-70
2021/12/26 02:33:24;;;;;;;10.13;2.83;;;28.30;98.80;;;;;;4972036;28;20061;-71
2021/12/26 02:35:53;;;;;;;10.38;2.92;;;28.50;98.30;;;;;;4972179;28;20118;-70
2021/12/26 02:38:20;;;;;;;14.02;3.50;;;28.60;97.90;;;;;;4972233;28;20023;-71
2021/12/26 02:40:51;;;;;;;9.80;3.28;;;28.90;98.00;;;;;;4971337;28;20038;-71
2021/12/26 02:43:20;;;;;;;10.73;3.03;;;29.20;96.90;;;;;;4971937;28;20021;-72
2021/12/26 02:45:49;;;;;;;12.63;2.58;;;29.40;96.90;;;;;;4972183;28;20423;-72
2021/12/26 02:48:16;;;;;;;8.20;2.63;;;29.50;96.30;;;;;;4974373;28;20458;-70
2021/12/26 02:50:46;;;;;;;8.73;2.55;;;29.60;95.80;;;;;;4975643;28;20038;-70
2021/12/26 02:53:20;;;;;;;10.60;3.15;;;29.80;95.60;;;;;;4975714;28;20019;-71
2021/12/26 02:55:56;;;;;;;13.32;2.63;;;29.90;95.90;;;;;;4975236;28;20066;-71
2021/12/26 02:58:23;;;;;;;10.82;3.47;;;30.00;95.10;;;;;;4975411;28;20053;-71
2021/12/26 03:00:55;;;;;;;11.20;3.33;;;30.10;94.70;;;;;;4975527;28;20534;-72
2021/12/26 03:03:22;;;;;;;7.88;2.47;;;30.00;94.60;;;;;;4975399;28;20103;-70
2021/12/26 03:05:57;;;;;;;9.05;2.75;;;29.80;94.90;;;;;;4975431;28;20037;-73
2021/12/26 03:08:25;;;;;;;9.73;3.08;;;29.50;95.10;;;;;;4975691;28;20015;-71
2021/12/26 03:10:53;;;;;;;12.00;2.70;;;29.30;95.30;;;;;;4975619;28;20034;-71
2021/12/26 03:13:22;;;;;;;8.48;3.30;;;29.20;95.70;;;;;;4975120;28;20423;-71
2021/12/26 03:15:49;;;;;;;10.27;3.05;;;29.00;96.10;;;;;;4974944;28;20035;-71
2021/12/26 03:18:17;;;;;;;8.55;2.95;;;28.80;96.30;;;;;;4975492;28;20030;-70
2021/12/26 03:20:48;;;;;;;6.05;2.28;;;28.70;96.50;;;;;;4975406;28;20023;-70
2021/12/26 03:23:18;;;;;;;13.27;3.20;;;28.40;96.90;;;;;;4975162;28;20035;-71
2021/12/26 03:25:46;;;;;;;8.60;2.95;;;28.20;97.40;;;;;;4975497;28;20109;-71
2021/12/26 03:28:15;;;;;;;8.85;2.63;;;28.10;98.30;;;;;;4975216;28;20165;-71
2021/12/26 03:30:42;;;;;;;17.52;3.45;;;28.00;98.30;;;;;;4975230;28;20423;-70
2021/12/26 03:33:11;;;;;;;12.23;3.50;;;27.80;98.60;;;;;;4974979;28;20023;-71
2021/12/26 03:35:40;;;;;;;17.30;2.80;;;27.70;98.70;;;;;;4975397;28;20035;-73
2021/12/26 03:38:10;;;;;;;9.13;2.83;;;27.50;98.90;;;;;;4975099;28;20140;-72
2021/12/26 03:40:38;;;;;;;7.40;2.70;;;27.50;99.30;;;;;;4975359;28;20027;-71
2021/12/26 03:43:08;;;;;;;9.23;2.70;;;27.50;99.80;;;;;;4975251;28;20041;-71
2021/12/26 03:45:35;;;;;;;9.38;2.95;;;27.30;99.20;;;;;;4975006;28;20030;-72
2021/12/26 03:48:04;;;;;;;9.05;3.15;;;27.20;99.40;;;;;;4975004;28;20041;-70
2021/12/26 03:50:32;;;;;;;13.68;2.70;;;27.10;99.70;;;;;;4975003;28;20031;-71
2021/12/26 03:53:02;;;;;;;11.60;3.72;;;27.00;99.60;;;;;;4974599;28;20094;-71
2021/12/26 03:55:30;;;;;;;8.02;2.55;;;27.00;99.90;;;;;;4974373;28;20093;-71
2021/12/26 03:57:57;;;;;;;12.57;4.25;;;27.20;99.90;;;;;;4974160;28;20026;-71
2021/12/26 04:00:27;;;;;;;10.73;2.75;;;27.10;99.90;;;;;;4974564;28;20054;-71
2021/12/26 04:02:55;;;;;;;10.32;3.95;;;27.10;99.80;;;;;;4974393;28;20023;-71
2021/12/26 04:05:23;;;;;;;12.15;3.67;;;27.10;99.80;;;;;;4974372;28;20077;-71
2021/12/26 04:07:50;;;;;;;12.80;4.10;;;27.00;99.90;;;;;;4974099;28;20057;-73
2021/12/26 04:10:22;;;;;;;11.82;4.30;;;27.10;99.90;;;;;;4974163;28;20027;-72
2021/12/26 04:12:53;;;;;;;12.88;3.65;;;27.10;99.90;;;;;;4974563;28;20459;-71
2021/12/26 04:15:22;;;;;;;15.30;4.75;;;27.10;99.90;;;;;;4974124;28;20042;-71
2021/12/26 04:17:51;;;;;;;18.17;4.35;;;27.00;99.90;;;;;;4973901;28;20019;-73
2021/12/26 04:20:22;;;;;;;15.68;4.57;;;26.80;99.90;;;;;;4973789;28;20101;-72
2021/12/26 04:22:50;;;;;;;14.70;4.32;;;26.70;99.90;;;;;;4974049;28;20432;-71
2021/12/26 04:25:20;;;;;;;22.23;5.28;;;26.70;99.90;;;;;;4974409;28;20029;-71
2021/12/26 04:27:48;;;;;;;18.50;4.82;;;26.60;99.90;;;;;;4974367;28;20024;-72
2021/12/26 04:30:18;;;;;;;21.00;5.53;;;26.60;99.90;;;;;;4974349;28;20109;-71
2021/12/26 04:32:45;;;;;;;17.05;5.72;;;26.70;99.90;;;;;;4973989;28;20023;-72
2021/12/26 04:35:13;;;;;;;15.88;5.10;;;26.80;99.90;;;;;;4973541;28;20026;-70
2021/12/26 04:37:40;;;;;;;15.75;5.30;;;27.00;99.90;;;;;;4973435;28;20034;-71
2021/12/26 04:40:11;;;;;;;18.55;5.38;;;26.90;99.90;;;;;;4974266;28;20046;-71
2021/12/26 04:42:40;;;;;;;18.10;5.65;;;27.10;99.90;;;;;;4974746;28;20085;-71
2021/12/26 04:45:09;;;;;;;18.55;5.60;;;27.40;99.90;;;;;;4973855;28;20110;-71
2021/12/26 04:47:37;;;;;;;21.00;5.25;;;27.50;99.90;;;;;;4973779;28;20439;-72
2021/12/26 04:50:07;;;;;;;28.73;6.50;;;27.60;99.70;;;;;;4973434;28;20027;-71
2021/12/26 04:52:35;;;;;;;27.92;7.32;;;27.50;99.80;;;;;;4973570;28;20110;-71
2021/12/26 04:55:05;;;;;;;25.63;5.78;;;27.50;99.90;;;;;;4973192;28;20527;-72
2021/12/26 04:57:32;;;;;;;22.92;5.15;;;27.30;99.90;;;;;;4973694;28;20037;-71
2021/12/26 05:00:00;;;;;;;30.10;6.57;;;27.30;99.90;;;;;;4973696;28;20077;-71
2021/12/26 05:02:29;;;;;;;25.92;6.38;;;27.10;99.90;;;;;;4973842;28;20031;-72
2021/12/26 05:04:56;;;;;;;23.73;5.47;;;27.00;99.90;;;;;;4973428;28;20019;-71
2021/12/26 05:07:24;;;;;;;28.30;7.22;;;26.80;99.90;;;;;;4973264;28;20032;-70
2021/12/26 05:09:51;;;;;;;24.23;7.05;;;26.70;99.90;;;;;;4972266;28;20058;-72
2021/12/26 05:12:18;;;;;;;23.20;6.30;;;26.60;99.90;;;;;;4973027;28;20475;-73
2021/12/26 05:14:45;;;;;;;22.63;7.35;;;26.40;99.90;;;;;;4973448;28;20038;-69
2021/12/26 05:17:13;;;;;;;26.38;7.38;;;26.30;99.90;;;;;;4973533;28;20023;-70
2021/12/26 05:19:40;;;;;;;30.65;6.38;;;26.30;99.90;;;;;;4971742;28;20336;-71
2021/12/26 05:22:07;;;;;;;24.25;6.93;;;26.20;99.90;;;;;;4973346;28;20023;-69
2021/12/26 05:24:35;;;;;;;24.08;7.50;;;26.20;99.90;;;;;;4973012;28;20621;-70
2021/12/26 05:27:03;;;;;;;28.90;8.20;;;26.20;99.90;;;;;;4973220;28;20471;-70
2021/12/26 05:29:30;;;;;;;28.45;6.70;;;26.20;99.90;;;;;;4973402;28;20503;-70
2021/12/26 05:31:58;;;;;;;24.38;7.07;;;26.20;99.90;;;;;;4972247;28;20373;-69
2021/12/26 05:34:25;;;;;;;25.67;7.70;;;26.00;99.90;;;;;;4973430;28;20019;-70
2021/12/26 05:36:52;;;;;;;25.23;6.22;;;26.00;99.90;;;;;;4972989;28;20042;-69
2021/12/26 05:39:20;;;;;;;23.88;6.93;;;26.00;99.90;;;;;;4973150;28;20166;-71
2021/12/26 05:41:47;;;;;;;27.77;7.85;;;25.90;99.90;;;;;;4973297;28;20480;-70
2021/12/26 05:44:14;;;;;;;30.08;8.52;;;25.90;99.90;;;;;;4971677;28;20387;-69
2021/12/26 05:46:42;;;;;;;25.55;7.90;;;25.80;99.90;;;;;;4973227;28;20034;-70
2021/12/26 05:49:09;;;;;;;24.90;8.93;;;25.60;99.90;;;;;;4971919;28;20037;-72
2021/12/26 05:51:36;;;;;;;30.00;10.02;;;25.60;99.90;;;;;;4973027;28;20030;-71
2021/12/26 05:54:04;;;;;;;26.92;9.30;;;25.50;99.90;;;;;;4972826;28;20058;-71
2021/12/26 05:56:32;;;;;;;30.10;10.30;;;25.40;99.90;;;;;;4972485;28;20042;-71
2021/12/26 05:58:59;;;;;;;29.48;9.35;;;25.30;99.90;;;;;;4972456;28;20530;-71
2021/12/26 06:01:26;;;;;;;25.40;8.35;;;25.20;99.90;;;;;;4972824;28;20039;-70
2021/12/26 06:03:53;;;;;;;30.85;9.35;;;25.10;99.90;;;;;;4973045;28;20027;-71
2021/12/26 06:06:21;;;;;;;25.50;8.73;;;24.90;99.90;;;;;;4972721;28;20538;-71
2021/12/26 06:08:48;;;;;;;26.23;8.77;;;24.80;99.90;;;;;;4972919;28;20085;-73
2021/12/26 06:11:16;;;;;;;23.83;8.68;;;24.70;99.90;;;;;;4973192;28;20023;-72
2021/12/26 06:13:43;;;;;;;18.88;6.95;;;24.60;99.90;;;;;;4973298;28;20023;-71
2021/12/26 06:16:10;;;;;;;27.88;8.57;;;24.60;99.90;;;;;;4972919;28;20050;-69
2021/12/26 06:18:38;;;;;;;23.17;7.63;;;24.50;99.90;;;;;;4972684;28;20543;-71
2021/12/26 06:21:05;;;;;;;18.15;6.53;;;24.40;99.90;;;;;;4974781;28;20058;-70
2021/12/26 06:23:32;;;;;;;19.60;6.78;;;24.20;99.90;;;;;;4975896;28;20043;-69
2021/12/26 06:25:59;;;;;;;14.27;5.93;;;24.00;99.90;;;;;;4975979;28;20476;-70
2021/12/26 06:28:27;;;;;;;12.43;5.47;;;23.80;99.90;;;;;;4976403;28;20023;-70
2021/12/26 06:30:54;;;;;;;12.82;5.80;;;23.70;99.90;;;;;;4974990;28;20395;-70
2021/12/26 06:33:22;;;;;;;12.93;5.18;;;23.60;99.90;;;;;;4975951;28;20030;-70
2021/12/26 06:35:50;;;;;;;13.02;3.75;;;23.50;99.90;;;;;;4976122;28;20054;-70
2021/12/26 06:38:17;;;;;;;10.77;4.75;;;23.30;99.90;;;;;;4976118;28;20023;-71
2021/12/26 06:40:45;;;;;;;14.93;3.67;;;23.20;99.90;;;;;;4975806;28;20109;-69
2021/12/26 06:43:12;;;;;;;9.60;3.65;;;23.20;99.90;;;;;;4975709;28;20045;-70
2021/12/26 06:45:39;;;;;;;8.80;3.30;;;23.00;99.90;;;;;;4974895;28;20022;-71
2021/12/26 06:48:08;;;;;;;9.45;2.17;;;23.00;99.90;;;;;;4975696;28;20015;-72
2021/12/26 06:50:37;;;;;;;7.50;2.42;;;22.90;99.90;;;;;;4975771;28;20105;-70
2021/12/26 06:53:05;;;;;;;8.70;2.55;;;22.80;99.90;;;;;;4975858;28;20042;-70
2021/12/26 06:55:32;;;;;;;10.32;3.08;;;22.80;99.90;;;;;;4975779;28;20037;-71
2021/12/26 06:58:00;;;;;;;8.73;2.53;;;22.80;99.90;;;;;;4975716;28;20073;-70
2021/12/26 07:00:27;;;;;;;7.05;2.25;;;22.80;99.90;;;;;;4975728;28;20019;-71
2021/12/26 07:02:54;;;;;;;6.15;1.88;;;22.70;99.90;;;;;;4975576;28;20041;-72
2021/12/26 07:05:22;;;;;;;4.15;2.03;;;22.70;99.90;;;;;;4976231;28;20026;-71
2021/12/26 07:07:50;;;;;;;4.22;1.80;;;22.60;99.90;;;;;;4975663;28;20106;-71
2021/12/26 07:10:17;;;;;;;4.03;1.85;;;22.60;99.90;;;;;;4974546;28;20035;-71
2021/12/26 07:12:45;;;;;;;3.40;1.10;;;22.60;99.90;;;;;;4975702;28;20051;-71
2021/12/26 07:15:13;;;;;;;6.82;1.92;;;22.60;99.90;;;;;;4975385;28;20038;-71
2021/12/26 07:17:42;;;;;;;4.13;1.40;;;22.60;99.90;;;;;;4975472;28;20054;-70
2021/12/26 07:20:14;;;;;;;3.53;0.80;;;22.70;99.90;;;;;;4975746;28;20054;-71
2021/12/26 07:22:43;;;;;;;2.47;0.77;;;22.80;99.90;;;;;;4975671;28;20018;-73
2021/12/26 07:25:11;;;;;;;4.82;1.00;;;22.80;99.90;;;;;;4975371;28;20034;-72
2021/12/26 07:27:39;;;;;;;5.07;1.33;;;22.80;99.90;;;;;;4975667;28;20034;-72
2021/12/26 07:30:08;;;;;;;4.45;1.48;;;22.80;99.90;;;;;;4975474;28;20535;-71
2021/12/26 07:32:35;;;;;;;7.65;1.60;;;22.80;99.90;;;;;;4974764;28;20030;-72
2021/12/26 07:35:03;;;;;;;9.73;1.60;;;22.80;99.90;;;;;;4974958;28;20039;-71
2021/12/26 07:37:31;;;;;;;11.63;2.22;;;22.80;99.90;;;;;;4970123;28;20110;-72
2021/12/26 07:39:58;;;;;;;9.10;2.47;;;22.70;99.90;;;;;;4973692;28;20127;-73
2021/12/26 07:42:25;;;;;;;8.65;1.55;;;22.70;99.90;;;;;;4974324;28;20022;-71
2021/12/26 07:44:53;;;;;;;11.98;1.30;;;22.50;99.90;;;;;;4972076;28;20500;-72
2021/12/26 07:47:20;;;;;;;9.23;1.58;;;22.50;99.90;;;;;;4962758;28;20023;-75
2021/12/26 07:49:47;;;;;;;10.32;1.92;;;22.40;99.90;;;;;;4955156;28;20031;-71
2021/12/26 07:52:19;;;;;;;7.85;1.50;;;22.40;99.90;;;;;;4955208;28;20970;-71
2021/12/26 07:54:46;;;;;;;12.33;2.40;;;22.30;99.90;;;;;;4954438;28;20067;-70
2021/12/26 07:57:14;;;;;;;8.00;1.48;;;22.30;99.90;;;;;;4954535;29;20495;-70
2021/12/26 07:59:41;;;;;;;8.55;1.85;;;22.30;99.90;;;;;;4954992;28;20027;-72
2021/12/26 08:02:10;;;;;;;6.32;1.55;;;22.30;99.90;;;;;;4953511;28;20031;-72
2021/12/26 08:04:38;;;;;;;9.88;1.70;;;22.30;99.90;;;;;;4955347;28;20023;-71
2021/12/26 08:07:07;;;;;;;11.85;2.33;;;22.30;99.90;;;;;;4955216;28;20046;-72
2021/12/26 08:09:34;;;;;;;10.38;1.67;;;22.20;99.90;;;;;;4955330;28;20392;-71
2021/12/26 08:12:02;;;;;;;12.10;1.88;;;22.30;99.90;;;;;;4955124;29;20024;-71
2021/12/26 08:14:29;;;;;;;10.38;2.13;;;22.20;99.90;;;;;;4955255;28;20058;-72
2021/12/26 08:16:56;;;;;;;13.15;2.58;;;22.20;99.90;;;;;;4954213;28;20062;-73
2021/12/26 08:19:24;;;;;;;9.25;1.88;;;22.10;99.90;;;;;;4955008;28;20019;-72
2021/12/26 08:21:52;;;;;;;11.07;2.35;;;22.00;99.90;;;;;;4954884;28;20046;-71
2021/12/26 08:24:22;;;;;;;11.45;2.28;;;21.90;99.90;;;;;;4953428;28;20043;-72
2021/12/26 08:26:51;;;;;;;11.07;1.70;;;21.90;99.90;;;;;;4955104;28;20058;-73
2021/12/26 08:29:23;;;;;;;12.93;2.63;;;21.90;99.90;;;;;;4954864;28;20031;-71
2021/12/26 08:31:55;;;;;;;9.40;1.35;;;21.90;99.90;;;;;;4954807;28;20039;-72
2021/12/26 08:34:23;;;;;;;12.70;2.35;;;21.90;99.90;;;;;;4954795;28;20066;-72
2021/12/26 08:37:00;;;;;;;12.38;2.00;;;21.90;99.90;;;;;;4954879;28;20034;-72
2021/12/26 08:39:33;;;;;;;8.55;1.55;;;21.90;99.90;;;;;;4955003;28;20078;-71
2021/12/26 08:42:00;;;;;;;14.82;1.80;;;21.90;99.90;;;;;;4953587;28;20122;-72
2021/12/26 08:44:28;;;;;;;14.73;2.17;;;21.90;99.90;;;;;;4953822;28;20441;-71
2021/12/26 08:46:55;;;;;;;12.88;2.20;;;21.90;99.90;;;;;;4954492;28;20030;-71
2021/12/26 08:49:23;;;;;;;12.60;2.35;;;21.80;99.90;;;;;;4954613;28;20030;-72
2021/12/26 08:51:50;;;;;;;13.07;2.03;;;21.80;99.90;;;;;;4954650;28;20058;-72
2021/12/26 08:54:18;;;;;;;12.70;2.28;;;21.80;99.90;;;;;;4954752;28;20027;-71
2021/12/26 08:56:45;;;;;;;10.43;1.40;;;21.80;99.90;;;;;;4954748;28;20032;-72
2021/12/26 08:59:14;;;;;;;12.07;2.13;;;21.70;99.90;;;;;;4954343;28;20365;-73
2021/12/26 09:01:43;;;;;;;13.63;2.08;;;21.70;99.90;;;;;;4954746;28;20362;-72
2021/12/26 09:04:10;;;;;;;11.63;1.58;;;21.70;99.90;;;;;;4954345;28;20106;-72
2021/12/26 09:06:38;;;;;;;10.93;2.50;;;21.70;99.90;;;;;;4954597;28;20074;-71
2021/12/26 09:09:05;;;;;;;15.52;1.90;;;21.80;99.90;;;;;;4953954;28;20109;-72
2021/12/26 09:11:33;;;;;;;14.18;2.10;;;21.80;99.90;;;;;;4954117;28;20023;-71
2021/12/26 09:14:01;;;;;;;9.18;1.52;;;21.80;99.90;;;;;;4954412;28;20383;-72
2021/12/26 09:16:33;;;;;;;11.38;1.63;;;21.90;99.90;;;;;;4954151;28;20062;-71
2021/12/26 09:19:05;;;;;;;12.60;1.20;;;21.90;99.90;;;;;;4954271;28;20476;-71
2021/12/26 09:21:33;;;;;;;12.57;1.73;;;21.90;99.90;;;;;;4953910;28;20491;-71
2021/12/26 09:24:00;;;;;;;14.43;2.28;;;22.00;99.90;;;;;;4954094;28;20050;-71
2021/12/26 09:26:27;;;;;;;14.00;2.38;;;22.00;99.90;;;;;;4954218;28;20023;-72
2021/12/26 09:28:55;;;;;;;13.85;2.25;;;22.00;99.90;;;;;;4953731;28;20384;-70
2021/12/26 09:31:22;;;;;;;12.75;2.15;;;22.10;99.90;;;;;;4952116;28;20437;-71
2021/12/26 09:33:50;;;;;;;18.02;2.88;;;22.10;99.90;;;;;;4953771;28;20033;-71
2021/12/26 09:36:17;;;;;;;12.75;1.52;;;22.10;99.90;;;;;;4952441;28;20037;-71
2021/12/26 09:38:45;;;;;;;7.82;1.45;;;22.10;99.90;;;;;;4953725;28;20047;-72
2021/12/26 09:41:12;;;;;;;7.20;1.10;;;22.10;99.90;;;;;;4953892;28;20033;-71
2021/12/26 09:43:40;;;;;;;6.10;1.02;;;22.10;99.90;;;;;;4953855;28;20539;-71
2021/12/26 09:46:07;;;;;;;10.32;1.83;;;22.10;99.90;;;;;;4953609;28;20039;-73
2021/12/26 09:48:35;;;;;;;7.60;1.40;;;22.00;99.90;;;;;;4953640;28;20084;-71
2021/12/26 09:51:02;;;;;;;11.82;1.63;;;22.10;99.90;;;;;;4953879;29;20110;-71
2021/12/26 09:53:29;;;;;;;11.07;1.27;;;22.00;99.90;;;;;;4953936;28;20031;-72
2021/12/26 09:55:57;;;;;;;7.57;1.15;;;22.10;99.90;;;;;;4955506;28;20035;-72
2021/12/26 09:58:24;;;;;;;12.23;1.55;;;22.00;99.90;;;;;;4957611;28;20031;-71
2021/12/26 10:00:51;;;;;;;7.18;1.10;;;22.00;99.90;;;;;;4959114;28;20114;-71
2021/12/26 10:03:28;;;;;;;11.35;2.05;;;22.00;99.90;;;;;;4969392;28;20023;-70
2021/12/26 10:06:12;;;;;;;7.18;1.23;;;21.90;99.90;;;;;;4971421;28;20033;-68
2021/12/26 10:09:12;;;;;;;9.10;1.45;;;21.90;99.90;;;;;;4971559;28;20077;-70
2021/12/26 10:11:46;;;;;;;8.35;0.88;;;22.00;99.90;;;;;;4954649;28;20125;-70
2021/12/26 10:14:16;;;;;;;7.60;1.20;;;22.00;99.90;;;;;;4971780;28;20062;-72
2021/12/26 10:16:49;;;;;;;13.50;1.73;;;22.00;99.90;;;;;;4971436;28;20129;-71
2021/12/26 10:19:17;;;;;;;9.38;1.05;;;22.10;99.90;;;;;;4971412;28;20023;-71
2021/12/26 10:21:45;;;;;;;7.85;2.20;;;22.20;99.90;;;;;;4971440;28;20369;-71
2021/12/26 10:24:18;;;;;;;4.95;1.08;;;22.20;99.90;;;;;;4971618;28;20035;-70
2021/12/26 10:27:08;;;;;;;10.70;1.35;;;22.20;99.90;;;;;;4971474;28;20038;-71
2021/12/26 10:29:40;;;;;;;4.72;1.13;;;22.20;99.90;;;;;;4970907;28;20371;-71
2021/12/26 10:32:11;;;;;;;;;;;22.20;99.90;;;;;;4971559;28;20019;-71
2021/12/26 10:35:09;;;;;;;11.88;1.23;;;22.20;99.90;;;;;;4971109;28;19948;-70
2021/12/26 10:37:45;;;;;;;9.25;1.17;;;22.20;99.90;;;;;;4965988;28;20086;-71
2021/12/26 10:40:21;;;;;;;10.55;1.95;;;22.30;99.90;;;;;;4971199;28;20814;-72
2021/12/26 10:42:52;;;;;;;13.30;2.17;;;22.30;99.90;;;;;;4970847;28;20027;-71
2021/12/26 10:45:23;;;;;;;12.38;2.50;;;22.30;99.90;;;;;;4970979;28;20033;-72
2021/12/26 10:47:58;;;;;;;13.18;1.70;;;22.30;99.90;;;;;;4971056;28;20030;-70
2021/12/26 10:50:27;;;;;;;16.00;2.47;;;22.30;99.90;;;;;;4970893;28;20396;-71
2021/12/26 10:53:01;;;;;;;21.15;4.03;;;22.30;99.90;;;;;;4970372;28;20938;-72
2021/12/26 10:55:34;;;;;;;12.85;2.05;;;22.30;99.90;;;;;;4970413;28;20391;-72
2021/12/26 10:58:10;;;;;;;11.70;2.28;;;22.30;99.90;;;;;;4970687;28;20031;-71
2021/12/26 11:00:49;;;;;;;12.05;2.15;;;22.30;99.90;;;;;;4970282;28;20023;-72
2021/12/26 11:03:22;;;;;;;13.75;2.15;;;22.30;99.90;;;;;;4970330;28;20023;-73
2021/12/26 11:05:53;;;;;;;12.82;3.25;;;22.30;99.90;;;;;;4970818;28;20062;-71
2021/12/26 11:08:33;;;;;;;11.30;2.20;;;22.20;99.90;;;;;;4969799;28;20518;-72
2021/12/26 11:11:11;;;;;;;9.63;2.40;;;22.20;99.90;;;;;;4970393;28;20496;-71
2021/12/26 11:13:38;;;;;;;12.90;3.00;;;22.10;99.90;;;;;;4970680;28;20703;-72
2021/12/26 11:16:07;;;;;;;18.75;2.80;;;22.00;99.90;;;;;;4970477;28;20043;-72
2021/12/26 11:18:37;;;;;;;15.30;4.22;;;21.90;99.90;;;;;;4970332;28;20708;-72
2021/12/26 11:21:06;;;;;;;15.77;3.38;;;21.80;99.90;;;;;;4969972;28;20030;-73
2021/12/26 11:23:39;;;;;;;14.38;2.83;;;21.70;99.90;;;;;;4970003;28;20058;-71
2021/12/26 11:26:12;;;;;;;12.68;3.60;;;21.60;99.90;;;;;;4969893;28;20085;-72
2021/12/26 11:28:43;;;;;;;14.50;2.67;;;21.50;99.90;;;;;;4970216;28;20384;-70
2021/12/26 11:31:11;;;;;;;12.35;3.80;;;21.40;99.90;;;;;;4970051;28;20031;-71
2021/12/26 11:33:40;;;;;;;13.55;3.75;;;21.30;99.90;;;;;;4970182;28;20022;-70
2021/12/26 11:36:11;;;;;;;6.05;1.80;;;21.20;99.90;;;;;;4969926;28;20030;-71
2021/12/26 11:38:40;;;;;;;11.82;3.10;;;21.10;99.90;;;;;;4970136;28;20015;-71
2021/12/26 11:41:35;;;;;;;15.52;3.20;;;21.00;99.90;;;;;;4969774;28;20035;-72
2021/12/26 11:44:15;;;;;;;11.05;2.58;;;20.90;99.90;;;;;;4967978;28;20030;-70
2021/12/26 11:46:48;;;;;;;14.32;3.28;;;20.80;99.90;;;;;;4969786;28;20074;-71
2021/12/26 11:49:40;;;;;;;11.48;2.72;;;20.70;99.90;;;;;;4969841;28;20046;-70
2021/12/26 11:52:24;;;;;;;14.23;3.00;;;20.70;99.90;;;;;;4969524;28;20027;-71
2021/12/26 11:55:06;;;;;;;8.05;2.15;;;20.60;99.90;;;;;;4969598;28;20443;-70
2021/12/26 11:58:00;;;;;;;11.00;2.05;;;20.50;99.90;;;;;;4969403;28;20543;-71
2021/12/26 12:00:39;;;;;;;12.02;2.55;;;20.50;99.90;;;;;;4969477;28;20035;-71
2021/12/26 12:03:21;;;;;;;10.60;1.98;;;20.50;99.90;;;;;;4969788;28;20027;-72
2021/12/26 12:05:49;;;;;;;11.07;2.38;;;20.50;99.90;;;;;;4969321;28;20046;-71
2021/12/26 12:08:29;;;;;;;15.27;2.40;;;20.50;99.90;;;;;;4967765;28;20046;-70
2021/12/26 12:10:59;;;;;;;17.42;4.35;;;20.50;99.90;;;;;;4969054;28;20026;-69
2021/12/26 12:13:27;;;;;;;11.65;3.45;;;20.50;99.90;;;;;;4968970;28;20045;-71
2021/12/26 12:16:05;;;;;;;17.58;2.80;;;20.60;99.90;;;;;;4969295;28;20558;-71
2021/12/26 12:18:34;;;;;;;11.70;2.83;;;20.60;99.90;;;;;;4969018;28;20058;-71
2021/12/26 12:21:12;;;;;;;19.52;3.55;;;20.60;99.90;;;;;;4969069;28;20065;-72
2021/12/26 12:24:00;;;;;;;15.52;2.42;;;20.60;99.90;;;;;;4969101;28;20186;-71
2021/12/26 12:26:57;;;;;;;13.40;2.38;;;20.50;99.90;;;;;;4968066;28;20074;-71
2021/12/26 12:29:30;;;;;;;16.13;3.42;;;20.60;99.90;;;;;;4965144;28;20039;-71
2021/12/26 12:32:09;;;;;;;11.07;2.30;;;20.50;99.90;;;;;;4968752;28;20110;-72
2021/12/26 12:34:51;;;;;;;17.17;2.05;;;20.60;99.90;;;;;;4969051;28;20070;-72
2021/12/26 12:37:29;;;;;;;15.85;3.10;;;20.60;99.90;;;;;;4967981;28;20699;-73
2021/12/26 12:40:15;;;;;;;15.82;3.13;;;20.70;99.90;;;;;;4968460;28;20081;-71
2021/12/26 12:42:58;;;;;;;13.30;2.10;;;20.70;99.90;;;;;;4968651;28;20019;-73
2021/12/26 12:45:27;;;;;;;12.32;2.30;;;20.70;99.90;;;;;;4972279;28;20078;-72
2021/12/26 12:48:38;;;;;;;14.35;3.72;;;20.70;99.90;;;;;;4973566;28;20019;-72
2021/12/26 12:51:18;;;;;;;9.75;3.30;;;20.70;99.90;;;;;;4968972;28;20098;-72
2021/12/26 12:53:56;;;;;;;13.23;3.40;;;20.70;99.90;;;;;;4973092;28;20051;-71
2021/12/26 12:56:36;;;;;;;9.27;2.78;;;20.60;99.90;;;;;;4973341;28;20494;-71
2021/12/26 12:59:21;;;;;;;13.88;3.15;;;20.60;99.90;;;;;;4973267;28;20034;-71
2021/12/26 13:01:50;;;;;;;16.88;5.13;;;20.60;99.90;;;;;;4973828;28;20035;-72